Time;durP1;ratioP1;P1;durP2;ratioP2;P2;SDS_P1;SDS_P2;PMS_P1;PMS_P2;Temp;Humidity;BMP_temperature;BMP_pressure;BME280_temperature;BME280_humidity;BME280_pressure;Samples;Min_cycle;Max_cycle;Signal;HPM_P1;HPM_P2
2023/10/25 00:01:07;;;;;;;34.20;22.90;;;;;;;11.24;100.00;99280.38;104992;1278;98899;-79
2023/10/25 00:03:53;;;;;;;33.10;23.20;;;;;;;11.23;100.00;99278.23;104861;1273;98603;-79
2023/10/25 00:06:38;;;;;;;35.10;24.60;;;;;;;11.23;100.00;99275.88;105147;1276;97944;-80
2023/10/25 00:09:24;;;;;;;36.80;24.80;;;;;;;11.22;100.00;99272.10;105144;1276;101418;-80
2023/10/25 00:12:10;;;;;;;33.40;22.80;;;;;;;11.21;100.00;99267.84;105446;1273;100578;-80
2023/10/25 00:14:55;;;;;;;33.40;23.60;;;;;;;11.20;100.00;99264.25;105425;1274;98016;-80
2023/10/25 00:17:40;;;;;;;32.80;23.20;;;;;;;11.18;100.00;99257.50;104950;1273;98001;-79
2023/10/25 00:20:26;;;;;;;32.50;22.40;;;;;;;11.16;100.00;99248.00;105093;1274;98084;-79
2023/10/25 00:23:11;;;;;;;29.10;22.90;;;;;;;11.14;100.00;99242.64;105464;1273;101489;-80
2023/10/25 00:25:57;;;;;;;33.50;24.50;;;;;;;11.11;100.00;99236.14;105001;1276;99143;-79
2023/10/25 00:28:42;;;;;;;30.40;22.40;;;;;;;11.10;100.00;99230.20;104953;1273;99018;-79
2023/10/25 00:31:28;;;;;;;36.40;24.00;;;;;;;11.09;100.00;99225.13;104925;1276;97988;-80
2023/10/25 00:34:14;;;;;;;33.20;23.90;;;;;;;11.07;100.00;99220.15;105336;1277;100169;-78
2023/10/25 00:37:00;;;;;;;40.30;23.30;;;;;;;11.07;100.00;99212.65;104959;1277;101447;-79
2023/10/25 00:39:45;;;;;;;31.20;20.90;;;;;;;11.07;100.00;99208.03;105010;1276;99877;-79
2023/10/25 00:42:31;;;;;;;30.20;22.00;;;;;;;11.06;100.00;99205.74;104896;1276;99195;-79
2023/10/25 00:45:16;;;;;;;37.80;24.30;;;;;;;11.06;100.00;99202.90;104806;1274;98046;-79
2023/10/25 00:48:03;;;;;;;35.10;23.90;;;;;;;11.04;100.00;99197.02;104853;1277;98001;-80
2023/10/25 00:50:49;;;;;;;39.30;23.60;;;;;;;11.03;100.00;99194.08;104883;1277;101511;-80
2023/10/25 00:53:38;;;;;;;33.70;23.90;;;;;;;11.01;100.00;99187.53;105542;1273;99324;-81
2023/10/25 00:56:26;;;;;;;35.90;24.00;;;;;;;11.00;100.00;99182.30;105538;1276;98134;-81
2023/10/25 00:59:12;;;;;;;34.50;23.00;;;;;;;10.98;100.00;99176.27;105593;1273;98032;-81
2023/10/25 01:01:59;;;;;;;33.50;22.30;;;;;;;10.99;100.00;99169.94;105518;1273;98513;-80
2023/10/25 01:04:45;;;;;;;34.00;22.10;;;;;;;10.99;100.00;99165.25;105566;1273;102856;-80
2023/10/25 01:07:31;;;;;;;33.60;23.30;;;;;;;11.00;100.00;99161.62;105605;1273;99753;-80
2023/10/25 01:10:16;;;;;;;37.00;24.30;;;;;;;10.99;100.00;99159.61;105515;1273;97921;-79
2023/10/25 01:13:02;;;;;;;32.10;22.20;;;;;;;10.98;100.00;99152.94;104831;1273;98053;-79
2023/10/25 01:15:47;;;;;;;32.30;20.80;;;;;;;10.99;100.00;99148.93;104889;1274;98650;-80
2023/10/25 01:18:33;;;;;;;30.30;22.00;;;;;;;10.98;100.00;99142.33;104915;1277;101417;-79
2023/10/25 01:21:20;;;;;;;33.50;24.60;;;;;;;10.98;100.00;99138.64;105121;1273;99152;-80
2023/10/25 01:24:06;;;;;;;34.80;21.50;;;;;;;10.97;100.00;99127.73;104909;1277;98965;-79
2023/10/25 01:26:51;;;;;;;31.00;21.70;;;;;;;10.96;100.00;99121.86;104944;1274;98495;-80
2023/10/25 01:29:37;;;;;;;35.60;23.60;;;;;;;10.94;100.00;99112.98;104944;1273;99125;-79
2023/10/25 01:32:22;;;;;;;31.80;22.50;;;;;;;10.94;100.00;99103.90;104780;1276;102663;-80
2023/10/25 01:35:08;;;;;;;31.30;23.40;;;;;;;10.92;100.00;99098.66;104894;1273;99229;-80
2023/10/25 01:37:54;;;;;;;32.60;21.80;;;;;;;10.90;100.00;99098.77;104908;1276;98460;-80
2023/10/25 01:40:40;;;;;;;33.00;22.90;;;;;;;10.90;100.00;99096.57;104879;1277;98011;-80
2023/10/25 01:43:25;;;;;;;32.10;23.30;;;;;;;10.91;100.00;99090.63;104760;1287;98046;-79
2023/10/25 01:46:11;;;;;;;31.30;22.30;;;;;;;10.90;100.00;99076.58;104789;1273;102114;-79
2023/10/25 01:48:56;;;;;;;32.80;21.60;;;;;;;10.91;100.00;99070.64;104844;1277;99224;-80
2023/10/25 01:51:42;;;;;;;29.60;21.30;;;;;;;10.91;100.00;99066.73;104800;1276;98007;-79
2023/10/25 01:54:28;;;;;;;33.00;23.80;;;;;;;10.91;100.00;99063.02;104759;1279;98043;-79
2023/10/25 01:57:13;;;;;;;31.20;22.20;;;;;;;10.91;100.00;99061.77;104955;1272;98443;-80
2023/10/25 02:00:01;;;;;;;28.30;20.70;;;;;;;10.91;100.00;99059.67;104946;1276;101983;-80
2023/10/25 02:02:47;;;;;;;30.40;22.50;;;;;;;10.92;100.00;99054.88;104778;1276;99293;-79
2023/10/25 02:05:32;;;;;;;29.50;21.80;;;;;;;10.93;100.00;99053.88;104882;1274;99040;-80
2023/10/25 02:08:18;;;;;;;32.00;22.30;;;;;;;10.93;100.00;99052.94;104992;1273;96566;-78
2023/10/25 02:11:05;;;;;;;30.70;23.30;;;;;;;10.94;100.00;99053.00;105007;1274;98029;-79
2023/10/25 02:13:50;;;;;;;32.20;22.80;;;;;;;10.95;100.00;99050.89;105106;1273;102618;-79
2023/10/25 02:16:36;;;;;;;33.80;22.20;;;;;;;10.96;100.00;99049.56;104845;1276;99131;-78
2023/10/25 02:19:21;;;;;;;31.40;22.40;;;;;;;10.97;100.00;99049.70;104890;1276;99314;-79
2023/10/25 02:22:06;;;;;;;30.30;22.00;;;;;;;10.98;100.00;99048.13;104853;1278;99111;-79
2023/10/25 02:24:53;;;;;;;35.60;23.20;;;;;;;10.98;100.00;99047.55;104897;1276;98674;-79
2023/10/25 02:27:38;;;;;;;29.00;21.40;;;;;;;10.98;100.00;99045.29;104956;1276;102178;-80
2023/10/25 02:30:25;;;;;;;28.20;21.50;;;;;;;10.99;100.00;99043.49;104912;1273;100213;-80
2023/10/25 02:33:10;;;;;;;28.90;20.70;;;;;;;11.00;100.00;99041.27;105522;1273;97960;-79
2023/10/25 02:35:55;;;;;;;29.00;21.00;;;;;;;11.00;100.00;99039.14;105462;1273;98406;-80
2023/10/25 02:38:41;;;;;;;31.40;22.60;;;;;;;11.01;100.00;99034.61;105430;1277;99402;-79
2023/10/25 02:41:27;;;;;;;30.50;21.30;;;;;;;11.02;100.00;99031.58;105468;1273;102101;-80
2023/10/25 02:44:14;;;;;;;30.20;21.70;;;;;;;11.03;100.00;99031.40;104853;1273;99280;-80
2023/10/25 02:46:59;;;;;;;28.40;21.10;;;;;;;11.03;100.00;99022.34;105005;1277;99077;-79
2023/10/25 02:49:46;;;;;;;26.50;20.30;;;;;;;11.02;100.00;99016.59;105247;1273;97930;-79
2023/10/25 02:52:31;;;;;;;29.00;21.20;;;;;;;11.02;100.00;99011.22;105248;1271;98505;-80
2023/10/25 02:55:17;;;;;;;28.80;21.60;;;;;;;11.02;100.00;99006.23;104991;1276;102916;-80
2023/10/25 02:58:02;;;;;;;30.60;22.60;;;;;;;11.01;100.00;99001.43;105708;1273;99282;-80
2023/10/25 03:00:48;;;;;;;28.60;21.70;;;;;;;11.01;100.00;98995.27;105526;1273;99113;-80
2023/10/25 03:03:34;;;;;;;29.50;21.10;;;;;;;11.03;100.00;98988.63;105093;1274;97937;-80
2023/10/25 03:06:20;;;;;;;25.60;19.40;;;;;;;11.03;100.00;98991.27;104945;1273;97989;-80
2023/10/25 03:09:06;;;;;;;29.30;21.10;;;;;;;11.04;100.00;98993.09;105291;1276;101378;-80
2023/10/25 03:11:51;;;;;;;26.50;21.00;;;;;;;11.06;100.00;98991.96;104560;1273;100946;-79
2023/10/25 03:14:37;;;;;;;28.20;21.50;;;;;;;11.06;100.00;98991.60;104542;1273;98467;-79
2023/10/25 03:17:23;;;;;;;27.60;21.10;;;;;;;11.05;100.00;98992.92;105169;1273;97912;-79
2023/10/25 03:20:09;;;;;;;26.90;21.00;;;;;;;11.06;100.00;98989.73;105326;1273;98599;-80
2023/10/25 03:22:56;;;;;;;28.00;21.00;;;;;;;11.06;100.00;98983.58;105553;1274;102727;-80
2023/10/25 03:25:41;;;;;;;31.20;21.70;;;;;;;11.06;100.00;98977.77;105447;1273;99151;-80
2023/10/25 03:28:27;;;;;;;27.70;21.20;;;;;;;11.06;100.00;98978.05;105339;1276;98047;-81
2023/10/25 03:31:12;;;;;;;29.40;22.60;;;;;;;11.09;100.00;98977.33;105512;1276;97905;-80
2023/10/25 03:33:58;;;;;;;36.30;22.70;;;;;;;11.11;100.00;98979.68;105514;1276;97946;-79
2023/10/25 03:36:43;;;;;;;29.00;22.30;;;;;;;11.13;100.00;98977.09;105623;1273;101418;-79
2023/10/25 03:39:30;;;;;;;31.90;21.60;;;;;;;11.13;100.00;98971.31;105635;1273;100496;-80
2023/10/25 03:42:16;;;;;;;29.90;20.60;;;;;;;11.15;100.00;98971.20;105569;1272;98020;-80
2023/10/25 03:45:02;;;;;;;27.90;21.50;;;;;;;11.16;100.00;98967.64;105490;1274;96268;-81
2023/10/25 03:47:51;;;;;;;30.50;21.80;;;;;;;11.16;100.00;98963.84;105577;1271;97889;-81
2023/10/25 03:50:36;;;;;;;30.00;21.60;;;;;;;11.17;100.00;98960.37;105593;1273;103756;-80
2023/10/25 03:53:22;;;;;;;28.60;21.90;;;;;;;11.17;100.00;98958.19;105400;1273;100378;-81
2023/10/25 03:56:08;;;;;;;28.00;20.70;;;;;;;11.18;100.00;98950.20;105580;1272;99148;-81
2023/10/25 03:58:53;;;;;;;31.10;22.70;;;;;;;11.18;100.00;98945.01;105434;1274;97883;-80
2023/10/25 04:01:39;;;;;;;24.20;19.60;;;;;;;11.19;100.00;98939.77;105496;1273;98517;-79
2023/10/25 04:04:24;;;;;;;31.80;22.20;;;;;;;11.19;100.00;98932.92;105445;1272;102719;-80
2023/10/25 04:07:12;;;;;;;30.30;22.40;;;;;;;11.18;100.00;98929.15;105519;1276;99330;-79
2023/10/25 04:09:57;;;;;;;28.80;21.70;;;;;;;11.17;100.00;98931.38;105588;1274;98264;-78
2023/10/25 04:12:43;;;;;;;30.30;22.00;;;;;;;11.17;100.00;98927.02;105041;1276;98023;-80
2023/10/25 04:15:30;;;;;;;29.10;22.40;;;;;;;11.17;100.00;98920.12;105037;1276;96183;-80
2023/10/25 04:18:16;;;;;;;28.00;20.50;;;;;;;11.17;100.00;98913.04;105071;1275;101392;-80
2023/10/25 04:21:03;;;;;;;27.70;21.40;;;;;;;11.16;100.00;98909.77;105696;1272;99434;-80
2023/10/25 04:23:48;;;;;;;26.90;21.60;;;;;;;11.15;100.00;98903.55;105488;1274;97977;-79
2023/10/25 04:26:34;;;;;;;30.90;21.00;;;;;;;11.13;100.00;98895.27;105585;1271;98071;-79
2023/10/25 04:29:19;;;;;;;28.60;21.00;;;;;;;11.12;100.00;98894.32;104962;1276;97983;-81
2023/10/25 04:32:05;;;;;;;26.40;21.20;;;;;;;11.12;100.00;98893.25;105704;1276;101413;-80
2023/10/25 04:34:51;;;;;;;31.60;21.50;;;;;;;11.11;100.00;98893.18;105448;1276;100379;-80
2023/10/25 04:37:37;;;;;;;31.20;21.80;;;;;;;11.11;100.00;98893.65;105548;1273;99049;-79
2023/10/25 04:40:22;;;;;;;28.80;21.80;;;;;;;11.11;100.00;98887.92;105378;1273;98069;-80
2023/10/25 04:43:07;;;;;;;27.20;21.90;;;;;;;11.10;100.00;98881.90;104952;1276;98877;-79
2023/10/25 04:45:52;;;;;;;27.70;19.90;;;;;;;11.11;100.00;98877.36;104830;1273;101493;-80
2023/10/25 04:48:38;;;;;;;29.60;22.00;;;;;;;11.11;100.00;98873.73;104898;1275;99254;-79
2023/10/25 04:51:24;;;;;;;26.90;22.00;;;;;;;11.11;100.00;98867.88;104826;1272;98413;-80
2023/10/25 04:54:09;;;;;;;31.10;22.00;;;;;;;11.13;100.00;98863.68;105706;1274;97992;-80
2023/10/25 04:56:57;;;;;;;30.60;22.60;;;;;;;11.14;100.00;98861.85;105638;1272;99590;-81
2023/10/25 04:59:43;;;;;;;27.60;21.90;;;;;;;11.14;100.00;98862.64;105142;1273;101453;-79
2023/10/25 05:02:28;;;;;;;26.00;21.30;;;;;;;11.13;100.00;98862.35;105643;1276;99235;-80
2023/10/25 05:05:15;;;;;;;32.40;23.00;;;;;;;11.13;100.00;98861.00;105494;1272;99023;-79
2023/10/25 05:08:01;;;;;;;31.70;22.80;;;;;;;11.12;100.00;98861.96;104824;1273;97977;-79
2023/10/25 05:10:52;;;;;;;25.00;20.50;;;;;;;11.12;100.00;98860.88;104943;1272;97876;-79
2023/10/25 05:13:37;;;;;;;34.20;22.30;;;;;;;11.12;100.00;98860.46;104855;1276;101462;-79
2023/10/25 05:16:23;;;;;;;27.30;21.30;;;;;;;11.12;100.00;98858.42;104762;1273;100386;-81
2023/10/25 05:19:09;;;;;;;30.30;21.00;;;;;;;11.11;100.00;98853.68;105391;1278;98994;-79
2023/10/25 05:21:55;;;;;;;27.00;20.90;;;;;;;11.10;100.00;98853.66;105574;1274;97954;-81
2023/10/25 05:24:41;;;;;;;23.50;19.70;;;;;;;11.09;100.00;98856.69;105424;1273;98188;-79
2023/10/25 05:27:27;;;;;;;25.70;20.70;;;;;;;11.09;100.00;98855.17;104948;1273;102643;-81
2023/10/25 05:30:15;;;;;;;25.10;19.70;;;;;;;11.08;100.00;98855.02;105765;1274;99162;-79
2023/10/25 05:33:04;;;;;;;30.70;21.30;;;;;;;11.07;100.00;98854.34;105598;1276;97892;-80
2023/10/25 05:35:50;;;;;;;24.50;20.40;;;;;;;11.07;100.00;98851.21;105431;1273;98003;-79
2023/10/25 05:38:36;;;;;;;26.10;19.50;;;;;;;11.06;100.00;98852.70;104866;1273;98490;-80
2023/10/25 05:41:25;;;;;;;25.40;19.80;;;;;;;11.05;100.00;98850.38;104953;1276;102095;-80
2023/10/25 05:44:14;;;;;;;22.40;19.80;;;;;;;11.04;100.00;98849.11;104881;1276;100341;-80
2023/10/25 05:47:00;;;;;;;26.40;19.60;;;;;;;11.04;100.00;98851.14;104475;1273;99932;-79
2023/10/25 05:49:46;;;;;;;20.60;17.30;;;;;;;11.04;100.00;98849.37;104881;1273;97908;-78
2023/10/25 05:52:31;;;;;;;26.40;19.60;;;;;;;11.04;100.00;98850.14;105137;1276;99228;-78
2023/10/25 05:55:17;;;;;;;21.40;18.10;;;;;;;11.04;100.00;98851.80;105413;1273;102126;-79
2023/10/25 05:58:03;;;;;;;21.90;17.50;;;;;;;11.04;100.00;98850.07;104813;1273;101119;-79
2023/10/25 06:00:51;;;;;;;20.90;18.60;;;;;;;11.04;100.00;98849.86;104745;1277;97998;-78
2023/10/25 06:03:38;;;;;;;21.10;17.30;;;;;;;11.03;100.00;98851.68;104844;1273;98030;-79
2023/10/25 06:06:25;;;;;;;22.30;17.40;;;;;;;11.04;100.00;98849.70;104750;1276;98081;-80
2023/10/25 06:09:12;;;;;;;22.00;17.90;;;;;;;11.04;100.00;98852.98;105401;1274;101588;-81
2023/10/25 06:11:58;;;;;;;19.70;16.10;;;;;;;11.05;100.00;98849.09;105268;1276;99613;-79
2023/10/25 06:14:44;;;;;;;21.30;17.50;;;;;;;11.06;100.00;98847.14;105390;1273;99035;-79
2023/10/25 06:17:29;;;;;;;20.40;16.80;;;;;;;11.06;100.00;98845.25;104702;1273;98027;-79
2023/10/25 06:20:19;;;;;;;17.80;14.90;;;;;;;11.06;100.00;98846.86;105366;1273;97908;-79
2023/10/25 06:23:05;;;;;;;18.00;15.80;;;;;;;11.05;100.00;98840.84;105463;1273;102642;-80
2023/10/25 06:25:50;;;;;;;17.10;14.90;;;;;;;11.06;100.00;98840.25;104781;1278;99690;-80
2023/10/25 06:28:36;;;;;;;18.40;15.00;;;;;;;11.07;100.00;98839.42;104912;1274;97911;-79
2023/10/25 06:31:22;;;;;;;18.70;15.70;;;;;;;11.05;100.00;98840.15;105010;1274;98002;-80
2023/10/25 06:34:07;;;;;;;15.80;14.00;;;;;;;11.06;100.00;98845.68;105443;1273;98286;-79
2023/10/25 06:36:53;;;;;;;17.50;14.90;;;;;;;11.07;100.00;98845.38;105347;1272;101444;-79
2023/10/25 06:39:39;;;;;;;14.60;13.10;;;;;;;11.07;100.00;98848.00;104851;1276;100882;-79
2023/10/25 06:42:25;;;;;;;17.50;15.00;;;;;;;11.06;100.00;98847.14;104921;1275;98067;-80
2023/10/25 06:45:16;;;;;;;15.80;14.10;;;;;;;11.07;100.00;98848.16;104882;1273;97777;-79
2023/10/25 06:48:02;;;;;;;17.20;14.60;;;;;;;11.06;100.00;98847.52;104902;1276;98638;-79
2023/10/25 06:50:48;;;;;;;19.10;15.50;;;;;;;11.06;100.00;98843.64;104433;1274;110430;-78
2023/10/25 06:53:37;;;;;;;17.40;13.60;;;;;;;11.04;100.00;98846.17;104783;1276;100140;-78
2023/10/25 06:56:23;;;;;;;14.70;13.10;;;;;;;11.03;100.00;98846.54;104766;1271;99081;-79
2023/10/25 06:59:09;;;;;;;19.10;14.20;;;;;;;11.03;100.00;98842.81;104878;1273;98026;-79
2023/10/25 07:02:39;;;;;;;17.60;14.90;;;;;;;11.03;100.00;98841.00;104865;1273;98623;-80
2023/10/25 07:05:25;;;;;;;16.20;13.80;;;;;;;11.02;100.00;98840.77;104778;1276;101890;-80
2023/10/25 07:08:11;;;;;;;17.90;14.00;;;;;;;11.02;100.00;98844.29;104896;1273;99655;-79
2023/10/25 07:10:57;;;;;;;16.40;13.40;;;;;;;11.00;100.00;98842.87;104835;1275;99040;-79
2023/10/25 07:13:43;;;;;;;16.20;13.50;;;;;;;11.01;100.00;98845.34;104753;1273;98350;-79
2023/10/25 07:16:28;;;;;;;15.00;13.00;;;;;;;10.99;100.00;98842.46;104898;1274;99783;-80
2023/10/25 07:19:14;;;;;;;14.50;13.00;;;;;;;10.99;100.00;98838.81;104906;1274;101372;-80
2023/10/25 07:21:59;;;;;;;15.60;13.60;;;;;;;10.99;100.00;98842.52;104874;1273;100425;-79
2023/10/25 07:24:45;;;;;;;14.50;12.80;;;;;;;10.99;100.00;98847.21;104943;1272;99186;-79
2023/10/25 07:27:30;;;;;;;14.40;12.90;;;;;;;11.00;100.00;98852.89;104881;1272;97905;-78
2023/10/25 07:30:16;;;;;;;14.90;13.20;;;;;;;11.02;100.00;98852.23;104743;1273;98029;-78
2023/10/25 07:33:02;;;;;;;16.40;12.70;;;;;;;11.03;100.00;98851.92;104709;1273;101447;-79
2023/10/25 07:35:47;;;;;;;14.90;12.60;;;;;;;11.04;100.00;98852.21;104667;1272;99193;-79
2023/10/25 07:38:33;;;;;;;13.80;12.40;;;;;;;11.03;100.00;98851.35;104697;1276;99035;-78
2023/10/25 07:41:18;;;;;;;15.40;12.40;;;;;;;11.03;100.00;98847.91;104779;1276;98251;-78
2023/10/25 07:44:04;;;;;;;13.20;11.90;;;;;;;11.03;100.00;98846.42;104805;1272;98452;-79
2023/10/25 07:46:49;;;;;;;13.70;12.10;;;;;;;11.03;100.00;98843.09;104897;1276;101383;-79
2023/10/25 07:49:35;;;;;;;12.30;10.80;;;;;;;11.03;100.00;98841.80;105310;1273;100038;-79
2023/10/25 07:52:23;;;;;;;15.00;12.20;;;;;;;11.04;100.00;98843.70;104748;1275;99093;-80
2023/10/25 07:55:08;;;;;;;14.70;12.30;;;;;;;11.04;100.00;98843.55;104712;1276;97986;-78
2023/10/25 07:57:54;;;;;;;12.90;11.70;;;;;;;11.03;100.00;98839.45;104805;1273;98526;-78
2023/10/25 08:00:40;;;;;;;13.10;11.70;;;;;;;11.04;100.00;98839.52;104740;1273;103101;-79
2023/10/25 08:03:28;;;;;;;13.00;10.90;;;;;;;11.03;100.00;98840.30;104837;1276;99145;-78
2023/10/25 08:06:14;;;;;;;11.90;10.60;;;;;;;11.03;100.00;98840.36;105555;1273;100008;-78
2023/10/25 08:08:59;;;;;;;13.40;11.50;;;;;;;11.04;100.00;98840.75;104899;1273;98075;-79
2023/10/25 08:11:45;;;;;;;11.50;10.40;;;;;;;11.04;100.00;98840.58;104937;1273;98501;-78
2023/10/25 08:14:30;;;;;;;12.40;11.20;;;;;;;11.04;100.00;98845.02;104988;1274;102120;-78
2023/10/25 08:17:16;;;;;;;12.00;10.70;;;;;;;11.04;100.00;98848.73;105038;1273;100916;-79
2023/10/25 08:20:01;;;;;;;11.20;9.90;;;;;;;11.05;100.00;98848.97;104903;1273;98005;-79
2023/10/25 08:22:46;;;;;;;10.40;9.40;;;;;;;11.05;100.00;98849.35;104776;1276;97947;-78
2023/10/25 08:25:35;;;;;;;11.60;10.50;;;;;;;11.04;100.00;98849.12;104856;1274;98482;-80
2023/10/25 08:28:21;;;;;;;14.10;10.20;;;;;;;11.05;100.00;98846.25;104769;1274;102029;-79
2023/10/25 08:31:13;;;;;;;10.90;9.60;;;;;;;11.05;100.00;98844.59;104818;1276;100342;-79
2023/10/25 08:34:00;;;;;;;11.60;9.60;;;;;;;11.04;100.00;98845.89;104734;1273;99088;-79
2023/10/25 08:36:45;;;;;;;14.60;9.90;;;;;;;11.04;100.00;98845.36;104825;1276;97918;-79
2023/10/25 08:39:31;;;;;;;11.20;10.10;;;;;;;11.06;100.00;98846.10;104809;1276;98087;-79
2023/10/25 08:42:17;;;;;;;12.60;9.40;;;;;;;11.07;100.00;98846.83;104755;1272;101984;-78
2023/10/25 08:45:04;;;;;;;10.80;9.70;;;;;;;11.08;100.00;98845.86;104829;1276;100425;-78
2023/10/25 08:47:50;;;;;;;10.40;9.40;;;;;;;11.09;100.00;98851.21;105245;1276;98033;-80
2023/10/25 08:50:38;;;;;;;14.40;9.20;;;;;;;11.10;100.00;98854.03;105310;1275;97971;-79
2023/10/25 08:53:27;;;;;;;10.40;9.40;;;;;;;11.12;100.00;98858.02;107117;1272;98317;-79
2023/10/25 08:56:13;;;;;;;9.80;8.80;;;;;;;11.14;100.00;98859.11;105691;1276;103362;-80
2023/10/25 08:58:59;;;;;;;9.30;8.40;;;;;;;11.18;100.00;98856.63;105793;1273;99345;-80
2023/10/25 09:01:45;;;;;;;9.20;8.00;;;;;;;11.21;100.00;98855.41;105547;1272;98603;-79
2023/10/25 09:04:31;;;;;;;8.90;8.00;;;;;;;11.22;100.00;98862.94;104843;1273;97975;-79
2023/10/25 09:07:30;;;;;;;8.80;7.90;;;;;;;11.25;100.00;98862.52;104680;1276;97878;-79
2023/10/25 09:10:17;;;;;;;7.90;7.10;;;;;;;11.28;100.00;98863.46;104732;1273;101340;-79
2023/10/25 09:13:12;;;;;;;7.10;6.50;;;;;;;11.30;100.00;98865.17;104699;1273;101003;-79
2023/10/25 09:16:07;;;;;;;6.80;6.10;;;;;;;11.34;100.00;98864.17;104759;1273;98780;-78
2023/10/25 09:18:52;;;;;;;6.30;5.70;;;;;;;11.35;100.00;98861.48;104664;1272;98075;-79
2023/10/25 09:21:38;;;;;;;6.60;6.00;;;;;;;11.38;100.00;98861.00;104759;1272;98542;-78
2023/10/25 09:24:24;;;;;;;6.00;5.40;;;;;;;11.41;100.00;98857.42;104757;1276;101360;-79
2023/10/25 09:27:09;;;;;;;5.60;5.10;;;;;;;11.44;100.00;98859.48;104787;1273;100404;-79
2023/10/25 09:30:11;;;;;;;6.60;6.00;;;;;;;11.47;100.00;98860.71;104850;1273;98010;-80
2023/10/25 09:32:57;;;;;;;5.40;4.40;;;;;;;11.45;100.00;98859.14;104708;1275;98011;-79
2023/10/25 09:35:43;;;;;;;3.80;3.50;;;;;;;11.44;100.00;98858.95;105211;1276;98488;-81
2023/10/25 09:38:28;;;;;;;4.40;4.00;;;;;;;11.43;100.00;98861.33;105545;1276;102084;-80
2023/10/25 09:41:18;;;;;;;6.00;4.60;;;;;;;11.41;100.00;98864.50;105627;1273;99364;-84
2023/10/25 09:44:18;;;;;;;4.60;4.20;;;;;;;11.37;100.00;98864.74;104994;1273;99065;-90
2023/10/25 09:47:15;;;;;;;4.40;3.90;;;;;;;11.37;100.00;98864.95;105403;1276;97925;-90
2023/10/25 09:50:06;;;;;;;4.40;4.00;;;;;;;11.39;100.00;98868.05;105082;1273;96227;-79
2023/10/25 09:53:00;;;;;;;4.10;3.70;;;;;;;11.39;100.00;98863.98;104954;1273;101521;-87
2023/10/25 09:55:54;;;;;;;3.70;3.40;;;;;;;11.41;100.00;98859.95;104969;1279;99727;-80
2023/10/25 09:58:40;;;;;;;3.10;2.30;;;;;;;11.41;100.00;98852.86;105471;1273;97978;-87
2023/10/25 10:01:26;;;;;;;3.10;2.90;;;;;;;11.41;100.00;98850.52;105713;1278;97947;-89
2023/10/25 10:04:42;;;;;;;3.10;2.80;;;;;;;11.41;100.00;98846.98;105257;1279;96526;-87
2023/10/25 10:08:15;;;;;;;2.60;2.40;;;;;;;11.39;100.00;98848.81;105401;1276;102653;-87
2023/10/25 10:11:09;;;;;;;2.80;2.40;;;;;;;11.34;100.00;98855.08;105021;1277;100594;-86
2023/10/25 10:14:30;;;;;;;2.40;2.20;;;;;;;11.32;100.00;98853.67;104808;1285;98101;-87
2023/10/25 10:17:18;;;;;;;2.90;2.70;;;;;;;11.31;100.00;98852.85;104638;1279;97909;-86
2023/10/25 10:20:05;;;;;;;2.80;2.50;;;;;;;11.32;100.00;98853.63;105285;1276;97361;-86
2023/10/25 10:23:16;;;;;;;2.90;2.30;;;;;;;11.35;100.00;98857.72;105303;1279;103707;-85
2023/10/25 10:26:02;;;;;;;2.90;2.50;;;;;;;11.36;100.00;98858.86;104637;1273;100379;-78
2023/10/25 10:28:48;;;;;;;6.40;2.60;;;;;;;11.36;100.00;98863.48;104453;1273;98034;-79
2023/10/25 10:31:57;;;;;;;3.70;2.60;;;;;;;11.39;100.00;98862.80;105498;1272;97915;-88
2023/10/25 10:34:49;;;;;;;2.70;2.50;;;;;;;11.41;100.00;98863.91;105198;1273;98074;-90
2023/10/25 10:37:54;;;;;;;2.90;2.40;;;;;;;11.42;100.00;98867.70;105550;1273;101423;-89
2023/10/25 10:40:40;;;;;;;2.60;2.40;;;;;;;11.41;100.00;98866.50;105869;1273;100688;-90
2023/10/25 10:43:29;;;;;;;2.50;2.30;;;;;;;11.42;100.00;98865.50;105160;1274;123528;-88
2023/10/25 10:46:17;;;;;;;3.20;2.70;;;;;;;11.43;100.00;98860.01;105381;1273;97977;-85
2023/10/25 10:49:08;;;;;;;3.60;2.20;;;;;;;11.44;100.00;98857.71;105732;1272;98528;-88
2023/10/25 10:51:55;;;;;;;;;;;;;;;11.44;100.00;98858.04;105347;1273;102769;-91
2023/10/25 10:54:41;;;;;;;2.30;2.10;;;;;;;11.42;100.00;98860.35;105366;1273;101386;-89
2023/10/25 11:01:19;;;;;;;2.00;1.80;;;;;;;11.40;100.00;98860.34;105819;1273;98012;-93
2023/10/25 11:04:16;;;;;;;3.10;1.70;;;;;;;11.41;100.00;98861.82;105903;1274;98437;-88
2023/10/25 11:07:02;;;;;;;1.90;1.80;;;;;;;11.42;100.00;98862.02;105655;1273;102361;-88
2023/10/25 11:09:52;;;;;;;2.20;2.00;;;;;;;11.43;100.00;98863.23;105614;1273;100518;-92
2023/10/25 11:12:39;;;;;;;5.50;2.10;;;;;;;11.45;100.00;98867.05;105593;1274;98046;-86
2023/10/25 11:15:29;;;;;;;2.50;2.30;;;;;;;11.46;100.00;98869.98;105697;1274;96513;-90
2023/10/25 11:18:15;;;;;;;4.50;2.40;;;;;;;11.48;100.00;98872.33;105215;1288;98097;-88
2023/10/25 11:21:01;;;;;;;2.30;2.10;;;;;;;11.49;100.00;98874.40;105469;1273;102560;-87
2023/10/25 11:23:47;;;;;;;2.30;2.10;;;;;;;11.51;100.00;98880.44;105045;1279;99405;-88
2023/10/25 11:26:37;;;;;;;2.20;2.10;;;;;;;11.51;100.00;98886.58;105203;1277;100167;-85
2023/10/25 11:29:24;;;;;;;3.30;2.40;;;;;;;11.51;100.00;98885.95;105411;1273;98029;-89
2023/10/25 11:32:14;;;;;;;2.50;2.20;;;;;;;11.51;100.00;98885.64;105024;1279;97791;-87
2023/10/25 11:35:00;;;;;;;3.40;2.00;;;;;;;11.52;100.00;98889.86;105016;1277;102781;-86
2023/10/25 11:37:46;;;;;;;4.40;2.40;;;;;;;11.51;100.00;98886.78;105228;1276;100565;-88
2023/10/25 11:40:38;;;;;;;2.20;2.00;;;;;;;11.51;100.00;98890.27;105337;1276;99113;-88
2023/10/25 11:43:23;;;;;;;2.40;2.20;;;;;;;11.48;100.00;98894.96;105376;1274;97976;-84
2023/10/25 11:46:09;;;;;;;2.00;1.80;;;;;;;11.46;100.00;98901.08;105336;1276;98016;-79
2023/10/25 11:48:59;;;;;;;2.50;2.20;;;;;;;11.44;100.00;98902.22;105425;1273;101366;-81
2023/10/25 11:51:46;;;;;;;3.00;2.40;;;;;;;11.43;100.00;98903.77;105360;1276;99747;-80
2023/10/25 11:54:32;;;;;;;2.40;2.20;;;;;;;11.47;100.00;98911.08;105307;1276;98417;-81
2023/10/25 11:57:17;;;;;;;3.10;2.60;;;;;;;11.48;100.00;98912.77;105401;1276;99298;-81
2023/10/25 12:00:04;;;;;;;2.90;2.50;;;;;;;11.49;100.00;98914.50;105688;1274;97793;-80
2023/10/25 12:02:57;;;;;;;3.80;3.40;;;;;;;11.48;100.00;98913.90;105767;1275;101366;-80
2023/10/25 12:05:44;;;;;;;3.80;3.50;;;;;;;11.48;100.00;98915.92;105723;1272;100444;-81
2023/10/25 12:08:30;;;;;;;3.70;3.20;;;;;;;11.49;100.00;98918.61;106023;1276;98017;-79
2023/10/25 12:11:16;;;;;;;5.50;4.40;;;;;;;11.46;100.00;98920.60;105230;1276;97994;-80
2023/10/25 12:14:01;;;;;;;5.50;4.90;;;;;;;11.44;100.00;98923.84;105441;1273;98004;-79
2023/10/25 12:16:47;;;;;;;5.00;4.60;;;;;;;11.42;100.00;98930.67;105226;1273;102693;-81
2023/10/25 12:19:37;;;;;;;5.30;4.80;;;;;;;11.40;100.00;98928.60;105312;1276;99106;-89
2023/10/25 12:22:23;;;;;;;6.00;5.50;;;;;;;11.38;100.00;98926.79;105137;1273;99338;-86
2023/10/25 12:25:09;;;;;;;5.50;5.00;;;;;;;11.37;100.00;98929.19;105360;1274;98042;-86
2023/10/25 12:27:55;;;;;;;5.30;4.70;;;;;;;11.35;100.00;98931.02;105224;1276;97938;-86
2023/10/25 12:30:41;;;;;;;4.20;3.80;;;;;;;11.32;100.00;98935.51;105315;1276;103168;-87
2023/10/25 12:34:44;;;;;;;4.40;4.00;;;;;;;11.30;100.00;98935.45;106600;1273;98007;-94
2023/10/25 12:38:37;;;;;;;5.00;4.10;;;;;;;11.23;100.00;98933.83;105686;1272;100630;-91
2023/10/25 12:41:23;;;;;;;4.10;3.10;;;;;;;11.20;100.00;98934.23;106001;1273;97550;-86